Time;durP1;ratioP1;P1;durP2;ratioP2;P2;SDS_P1;SDS_P2;PMS_P1;PMS_P2;Temp;Humidity;BMP_temperature;BMP_pressure;BME280_temperature;BME280_humidity;BME280_pressure;Samples;Min_cycle;Max_cycle;Signal;HPM_P1;HPM_P2
2022/11/12 00:02:01;;;;;;;3.57;2.63;;;6.90;99.90;;;;;;5200513;28;20463;-77
2022/11/12 00:04:55;;;;;;;6.10;3.22;;;6.80;99.90;;;;;;5172619;28;20056;-77
2022/11/12 00:07:47;;;;;;;4.90;2.70;;;6.90;99.90;;;;;;5200821;28;20035;-76
2022/11/12 00:10:38;;;;;;;4.88;3.00;;;7.00;99.90;;;;;;5184122;28;20025;-77
2022/11/12 00:13:30;;;;;;;3.55;2.50;;;7.00;99.90;;;;;;5186463;28;20031;-77
2022/11/12 00:16:24;;;;;;;3.20;1.90;;;7.00;99.90;;;;;;5198312;28;20021;-77
2022/11/12 00:19:18;;;;;;;7.28;2.50;;;6.80;99.90;;;;;;5187318;28;20044;-77
2022/11/12 00:22:14;;;;;;;2.83;2.20;;;6.70;99.90;;;;;;5188827;28;20211;-76
2022/11/12 00:25:06;;;;;;;2.95;1.95;;;6.50;99.90;;;;;;5187000;28;20062;-77
2022/11/12 00:28:06;;;;;;;3.72;2.33;;;6.30;99.90;;;;;;5203531;28;20027;-77
2022/11/12 00:31:00;;;;;;;3.58;2.03;;;6.20;99.90;;;;;;5185999;28;20025;-77
2022/11/12 00:33:51;;;;;;;3.27;2.07;;;6.20;99.90;;;;;;5186741;28;20017;-77
2022/11/12 00:36:45;;;;;;;2.20;1.90;;;6.30;99.90;;;;;;5202262;28;20266;-77
2022/11/12 00:39:39;;;;;;;2.85;2.30;;;6.40;99.90;;;;;;5199407;28;20026;-77
2022/11/12 00:42:30;;;;;;;2.10;1.70;;;6.40;99.90;;;;;;5200193;28;20032;-77
2022/11/12 00:45:23;;;;;;;2.92;1.70;;;6.50;99.90;;;;;;5200378;28;20033;-77
2022/11/12 00:48:16;;;;;;;2.00;1.80;;;6.70;99.90;;;;;;5199162;28;20060;-77
2022/11/12 00:51:08;;;;;;;4.38;2.55;;;6.70;99.90;;;;;;5205302;28;20383;-77
2022/11/12 00:54:00;;;;;;;2.05;1.50;;;6.70;99.90;;;;;;5190887;28;20040;-77
2022/11/12 00:56:54;;;;;;;4.45;2.30;;;6.70;99.90;;;;;;5206441;28;20103;-77
2022/11/12 00:59:45;;;;;;;1.92;1.58;;;6.70;99.90;;;;;;5190723;28;20033;-77
2022/11/12 01:02:37;;;;;;;2.63;1.80;;;6.40;99.90;;;;;;5207948;28;20041;-77
2022/11/12 01:05:28;;;;;;;3.95;2.15;;;6.40;99.90;;;;;;5198214;28;20062;-77
2022/11/12 01:08:20;;;;;;;3.45;1.80;;;6.00;99.90;;;;;;5207989;28;20025;-77
2022/11/12 01:11:18;;;;;;;3.55;1.80;;;5.70;99.90;;;;;;5197518;28;20021;-77
2022/11/12 01:14:14;;;;;;;2.95;1.70;;;5.80;99.90;;;;;;5210146;28;20055;-77
2022/11/12 01:17:07;;;;;;;;;;;5.90;99.90;;;;;;5195883;28;20039;-77
2022/11/12 01:19:59;;;;;;;2.28;1.63;;;5.70;99.90;;;;;;5168801;28;20130;-77
2022/11/12 01:22:52;;;;;;;4.03;1.85;;;5.60;99.90;;;;;;5167983;28;20038;-77
2022/11/12 01:25:44;;;;;;;4.38;2.10;;;5.60;99.90;;;;;;5169904;28;20036;-77
2022/11/12 01:28:38;;;;;;;2.28;1.75;;;5.50;99.90;;;;;;5191940;28;20036;-75
2022/11/12 01:31:32;;;;;;;3.03;1.85;;;5.50;99.90;;;;;;5168369;28;20041;-75
2022/11/12 01:34:30;;;;;;;2.90;1.80;;;5.50;99.90;;;;;;5154193;28;20034;-77
2022/11/12 01:37:21;;;;;;;2.85;1.90;;;5.50;99.90;;;;;;5154309;28;20715;-76
2022/11/12 01:40:15;;;;;;;2.67;1.85;;;5.60;99.90;;;;;;5154181;28;20028;-75
2022/11/12 01:43:20;;;;;;;3.15;1.70;;;5.50;99.90;;;;;;5153326;28;20022;-75
2022/11/12 01:46:23;;;;;;;4.15;1.33;;;5.40;99.90;;;;;;5167142;28;20034;-75
2022/11/12 01:49:34;;;;;;;2.63;1.67;;;5.50;99.90;;;;;;5189673;28;20076;-76
2022/11/12 01:52:41;;;;;;;2.53;1.42;;;5.60;99.90;;;;;;5173023;28;20021;-75
2022/11/12 01:55:36;;;;;;;2.08;1.35;;;5.70;99.90;;;;;;5168500;28;20338;-75
2022/11/12 01:58:31;;;;;;;;;;;5.80;99.90;;;;;;5208331;28;20029;-77
2022/11/12 02:01:25;;;;;;;1.45;1.25;;;5.80;99.90;;;;;;5202049;28;19928;-75
2022/11/12 02:04:16;;;;;;;2.70;1.50;;;5.80;99.90;;;;;;5182601;28;20101;-76
2022/11/12 02:07:09;;;;;;;2.88;0.95;;;5.90;99.90;;;;;;5172764;28;20030;-75
2022/11/12 02:10:06;;;;;;;2.67;1.40;;;5.90;99.90;;;;;;5172888;28;20060;-77
2022/11/12 02:16:09;;;;;;;1.58;1.20;;;6.20;99.90;;;;;;5187012;28;20030;-76
2022/11/12 02:19:11;;;;;;;2.22;1.17;;;6.30;99.90;;;;;;5183599;28;20416;-76
2022/11/12 02:22:04;;;;;;;1.40;1.20;;;6.30;99.90;;;;;;5172608;28;20022;-75
2022/11/12 02:25:00;;;;;;;0.85;0.85;;;6.40;99.90;;;;;;5172826;28;20032;-75
2022/11/12 02:27:54;;;;;;;1.00;0.90;;;6.30;99.90;;;;;;5206863;28;20025;-75
2022/11/12 02:30:49;;;;;;;0.80;0.80;;;6.20;99.90;;;;;;5192790;28;20026;-75
2022/11/12 02:33:43;;;;;;;2.85;1.05;;;6.20;99.90;;;;;;5170850;28;20048;-77
2022/11/12 02:36:37;;;;;;;1.03;0.90;;;6.20;99.90;;;;;;5186651;28;20044;-77
2022/11/12 02:39:31;;;;;;;1.30;0.90;;;6.10;99.90;;;;;;5186783;28;20025;-77
2022/11/12 02:42:27;;;;;;;1.60;1.05;;;6.20;99.90;;;;;;5172531;28;20477;-76
2022/11/12 02:45:19;;;;;;;0.65;0.65;;;6.30;99.90;;;;;;5187061;28;20030;-76
2022/11/12 02:48:11;;;;;;;0.70;0.70;;;6.40;99.90;;;;;;5170166;28;20037;-76
2022/11/12 02:51:05;;;;;;;0.90;0.80;;;6.50;99.90;;;;;;5189864;28;20060;-77
2022/11/12 02:53:57;;;;;;;0.80;0.80;;;6.60;99.90;;;;;;5191844;28;20029;-77
2022/11/12 02:56:48;;;;;;;1.08;0.90;;;6.70;99.90;;;;;;5207018;28;20028;-77
2022/11/12 02:59:42;;;;;;;0.90;0.90;;;6.80;99.90;;;;;;5182345;28;20030;-77
2022/11/12 03:02:57;;;;;;;0.73;0.70;;;6.90;99.90;;;;;;5173447;28;20041;-77
2022/11/12 03:06:01;;;;;;;1.13;1.02;;;7.00;99.90;;;;;;5187789;28;20438;-77
2022/11/12 03:08:53;;;;;;;0.85;0.85;;;7.10;99.90;;;;;;5163331;28;20343;-77
2022/11/12 03:11:47;;;;;;;1.02;0.90;;;7.30;99.90;;;;;;5167914;28;21577;-77
2022/11/12 03:14:39;;;;;;;1.48;1.23;;;7.30;99.90;;;;;;5186192;28;20022;-77
2022/11/12 03:17:33;;;;;;;1.20;0.90;;;7.30;99.90;;;;;;5171648;28;20326;-77
2022/11/12 03:20:26;;;;;;;;;;;7.20;99.90;;;;;;5181594;28;20029;-77
2022/11/12 03:23:19;;;;;;;1.05;0.80;;;7.10;99.90;;;;;;5172392;28;19939;-76
2022/11/12 03:26:15;;;;;;;0.70;0.70;;;6.70;99.90;;;;;;5191600;28;20047;-75
2022/11/12 03:29:06;;;;;;;0.85;0.85;;;6.80;99.90;;;;;;5192130;28;20053;-77
2022/11/12 03:32:00;;;;;;;1.70;1.00;;;7.00;99.90;;;;;;5206355;28;20042;-77
2022/11/12 03:34:57;;;;;;;1.25;1.15;;;6.90;99.90;;;;;;5185989;28;20643;-77
2022/11/12 03:37:51;;;;;;;1.10;0.75;;;7.00;99.90;;;;;;5171230;28;20033;-75
2022/11/12 03:40:47;;;;;;;0.63;0.63;;;7.20;99.90;;;;;;5170915;28;20032;-75
2022/11/12 03:43:39;;;;;;;1.00;1.00;;;7.40;99.90;;;;;;5180286;28;20040;-75
2022/11/12 03:46:30;;;;;;;1.55;1.45;;;7.80;99.90;;;;;;5158021;28;20037;-76
2022/11/12 03:49:24;;;;;;;1.13;0.95;;;8.20;99.90;;;;;;5178226;28;20029;-75
2022/11/12 03:52:18;;;;;;;2.60;0.73;;;8.90;99.90;;;;;;5170764;28;20030;-75
2022/11/12 03:55:14;;;;;;;2.78;0.90;;;9.10;99.90;;;;;;5184074;28;20025;-75
2022/11/12 03:58:06;;;;;;;0.68;0.65;;;9.30;99.90;;;;;;5167196;28;20034;-75
2022/11/12 04:00:57;;;;;;;0.80;0.80;;;9.30;99.90;;;;;;5186319;28;20345;-75
2022/11/12 04:03:51;;;;;;;1.13;1.00;;;9.20;99.90;;;;;;5169724;28;20030;-75
2022/11/12 04:09:59;;;;;;;1.20;1.10;;;8.10;99.90;;;;;;5167695;28;20026;-76
2022/11/12 04:22:29;;;;;;;1.83;1.52;;;6.10;99.90;;;;;;5185226;28;20038;-77
2022/11/12 04:28:33;;;;;;;3.13;1.40;;;5.50;99.90;;;;;;5172638;28;20040;-75
2022/11/12 04:31:25;;;;;;;2.90;1.70;;;5.30;99.90;;;;;;5184079;28;20046;-76
2022/11/12 04:34:37;;;;;;;2.67;1.58;;;5.10;99.90;;;;;;5184063;28;20041;-76
2022/11/12 04:37:43;;;;;;;3.72;1.80;;;4.90;99.90;;;;;;5184985;28;20029;-77
2022/11/12 04:46:56;;;;;;;2.05;1.58;;;4.60;99.90;;;;;;5186040;28;20040;-77
2022/11/12 04:49:48;;;;;;;1.95;1.45;;;4.60;99.90;;;;;;5187942;28;20472;-76
2022/11/12 04:52:43;;;;;;;2.25;1.55;;;4.60;99.90;;;;;;5184330;28;20265;-77
2022/11/12 04:55:36;;;;;;;1.52;1.42;;;4.50;99.90;;;;;;5159097;28;20055;-77
2022/11/12 04:58:30;;;;;;;2.80;1.92;;;4.40;99.90;;;;;;5189789;28;20036;-76
2022/11/12 05:01:23;;;;;;;3.88;2.28;;;4.40;99.90;;;;;;5173434;28;20040;-77
2022/11/12 05:04:15;;;;;;;2.88;1.83;;;4.40;99.90;;;;;;5174514;28;20030;-77
2022/11/12 05:07:09;;;;;;;3.15;2.05;;;4.40;99.90;;;;;;5184726;28;20044;-77
2022/11/12 05:10:03;;;;;;;3.13;1.90;;;4.40;99.90;;;;;;5177455;28;20048;-77
2022/11/12 05:12:54;;;;;;;3.67;2.25;;;4.50;99.90;;;;;;5153547;28;20026;-77
2022/11/12 05:15:48;;;;;;;1.85;1.65;;;4.30;99.90;;;;;;5164815;28;20026;-77
2022/11/12 05:18:39;;;;;;;6.13;2.47;;;4.40;99.90;;;;;;5169060;28;20021;-76
2022/11/12 05:24:49;;;;;;;5.78;2.08;;;4.20;99.90;;;;;;5184758;28;20022;-77
2022/11/12 05:27:43;;;;;;;2.47;2.28;;;4.20;99.90;;;;;;5199651;28;20033;-77
2022/11/12 05:30:39;;;;;;;4.32;1.92;;;4.20;99.90;;;;;;5205739;28;20032;-77
2022/11/12 05:33:31;;;;;;;3.58;2.15;;;4.20;99.90;;;;;;5205507;28;20047;-75
2022/11/12 05:36:25;;;;;;;2.60;2.05;;;4.20;99.90;;;;;;5205551;28;20028;-77
2022/11/12 05:39:19;;;;;;;2.55;2.25;;;4.30;99.90;;;;;;5198018;28;20036;-75
2022/11/12 05:42:11;;;;;;;2.88;2.58;;;4.40;99.90;;;;;;5173723;28;20038;-77
2022/11/12 05:45:05;;;;;;;2.83;2.15;;;4.40;99.90;;;;;;5187372;28;20030;-77
2022/11/12 05:47:58;;;;;;;3.70;2.13;;;4.20;99.90;;;;;;5194726;28;20045;-77
2022/11/12 05:50:53;;;;;;;3.15;2.00;;;4.10;99.90;;;;;;5187565;28;20032;-77
2022/11/12 05:53:47;;;;;;;4.05;2.13;;;4.20;99.90;;;;;;5190233;28;20306;-75
2022/11/12 05:56:42;;;;;;;2.25;1.88;;;4.50;99.90;;;;;;5196784;28;20111;-77
2022/11/12 05:59:38;;;;;;;1.95;1.77;;;4.60;99.90;;;;;;5194709;28;20037;-75
2022/11/12 06:02:31;;;;;;;11.75;7.90;;;4.70;99.90;;;;;;5180292;28;20041;-77
2022/11/12 06:05:22;;;;;;;3.15;2.78;;;4.80;99.90;;;;;;5155684;28;20539;-77
2022/11/12 06:08:18;;;;;;;3.30;3.00;;;4.70;99.90;;;;;;5183264;28;20034;-76
2022/11/12 06:11:10;;;;;;;5.10;3.40;;;4.50;99.90;;;;;;5187408;28;20029;-76
2022/11/12 06:14:04;;;;;;;3.75;2.85;;;4.40;99.90;;;;;;5168266;28;20052;-76
2022/11/12 06:16:56;;;;;;;4.30;2.78;;;4.40;99.90;;;;;;5172978;28;20032;-76
2022/11/12 06:19:47;;;;;;;6.50;3.30;;;4.40;99.90;;;;;;5172859;28;20037;-76
2022/11/12 06:22:39;;;;;;;5.95;3.20;;;4.40;99.90;;;;;;5187021;28;20029;-76
2022/11/12 06:25:30;;;;;;;5.35;3.35;;;4.40;99.90;;;;;;5172550;28;20048;-76
2022/11/12 06:28:25;;;;;;;4.57;2.88;;;4.50;99.90;;;;;;5207965;28;20481;-76
2022/11/12 06:31:18;;;;;;;6.43;2.42;;;4.60;99.90;;;;;;5207424;28;20034;-76
2022/11/12 06:34:11;;;;;;;3.67;2.67;;;4.80;99.90;;;;;;5199704;28;20365;-76
2022/11/12 06:37:02;;;;;;;4.93;3.20;;;5.00;99.90;;;;;;5186164;28;20036;-76
2022/11/12 06:39:54;;;;;;;3.13;2.30;;;5.20;99.90;;;;;;5158855;28;20033;-76
2022/11/12 06:42:45;;;;;;;7.82;2.78;;;5.40;99.90;;;;;;5187000;28;20026;-76
2022/11/12 06:45:42;;;;;;;4.43;2.97;;;5.50;99.90;;;;;;5187586;28;20357;-76
2022/11/12 06:48:33;;;;;;;4.57;2.95;;;5.70;99.90;;;;;;5187812;28;20216;-76
2022/11/12 06:51:27;;;;;;;3.50;2.40;;;5.80;99.90;;;;;;5174142;28;20344;-77
2022/11/12 06:54:19;;;;;;;5.60;2.33;;;5.90;99.90;;;;;;5172827;28;20042;-76
2022/11/12 06:57:11;;;;;;;4.43;2.38;;;6.10;99.90;;;;;;5201617;28;20044;-76
2022/11/12 07:00:05;;;;;;;2.95;2.38;;;6.30;99.90;;;;;;5183757;28;20041;-76
2022/11/12 07:02:57;;;;;;;3.30;2.97;;;6.40;99.90;;;;;;5185204;28;20030;-76
2022/11/12 07:05:51;;;;;;;9.95;2.70;;;6.70;99.90;;;;;;5161478;28;20469;-76
2022/11/12 07:08:42;;;;;;;4.25;2.33;;;6.80;99.90;;;;;;5184061;28;20408;-76
2022/11/12 07:11:39;;;;;;;4.32;2.90;;;7.20;99.90;;;;;;5184785;28;20052;-76
2022/11/12 07:14:30;;;;;;;5.10;3.03;;;7.40;99.90;;;;;;5164944;28;20037;-76
2022/11/12 07:17:27;;;;;;;4.50;3.38;;;7.70;99.90;;;;;;5186159;28;20037;-76
2022/11/12 07:20:20;;;;;;;5.65;3.17;;;7.80;99.90;;;;;;5150972;28;20053;-76
2022/11/12 07:23:12;;;;;;;4.38;2.83;;;7.90;99.90;;;;;;5165368;28;20037;-77
2022/11/12 07:26:06;;;;;;;5.55;3.20;;;8.10;99.90;;;;;;5192466;28;20033;-77
2022/11/12 07:29:02;;;;;;;3.73;3.10;;;8.10;99.90;;;;;;5207051;28;20039;-76
2022/11/12 07:31:53;;;;;;;3.22;2.45;;;8.10;99.90;;;;;;5191344;28;20032;-77
2022/11/12 07:34:50;;;;;;;3.95;3.20;;;8.30;99.90;;;;;;5191402;28;20048;-77
2022/11/12 07:37:42;;;;;;;4.70;3.03;;;8.50;99.90;;;;;;5185893;28;20018;-77
2022/11/12 07:40:33;;;;;;;3.83;2.33;;;8.60;99.90;;;;;;5152165;28;20023;-77
2022/11/12 07:43:30;;;;;;;5.82;2.80;;;8.70;99.90;;;;;;5169340;28;20652;-77
2022/11/12 07:46:29;;;;;;;6.00;2.20;;;8.80;99.90;;;;;;5148520;28;20026;-77
2022/11/12 07:49:22;;;;;;;3.72;1.88;;;9.10;99.90;;;;;;5176742;28;20036;-76
2022/11/12 07:52:14;;;;;;;3.13;1.90;;;9.50;99.90;;;;;;5187955;28;20026;-76
2022/11/12 07:55:06;;;;;;;3.10;1.98;;;9.90;99.90;;;;;;5183931;28;20072;-76
2022/11/12 07:58:03;;;;;;;2.30;1.52;;;10.50;99.90;;;;;;5185031;28;20033;-76
2022/11/12 08:00:57;;;;;;;1.80;1.63;;;10.90;99.90;;;;;;5180175;28;20026;-75
2022/11/12 08:03:49;;;;;;;1.33;1.23;;;11.30;99.90;;;;;;5176122;28;20048;-75
2022/11/12 08:06:43;;;;;;;1.38;1.27;;;11.60;99.90;;;;;;5164938;28;20061;-76
2022/11/12 08:09:37;;;;;;;5.30;1.55;;;11.80;99.90;;;;;;5184425;28;20024;-77
2022/11/12 08:12:29;;;;;;;1.52;1.40;;;11.90;99.90;;;;;;5158958;28;20030;-75
2022/11/12 08:15:25;;;;;;;2.88;1.80;;;12.00;99.90;;;;;;5172115;28;20072;-77
2022/11/12 08:18:17;;;;;;;1.95;1.35;;;12.10;99.90;;;;;;5185124;28;20032;-75
2022/11/12 08:21:23;;;;;;;1.33;1.20;;;12.20;99.90;;;;;;5185827;28;20046;-75
2022/11/12 08:24:18;;;;;;;1.63;1.52;;;12.30;99.90;;;;;;5184587;28;20040;-76
2022/11/12 08:27:09;;;;;;;1.75;1.20;;;12.40;99.90;;;;;;5191466;28;20323;-75
2022/11/12 08:30:03;;;;;;;1.50;1.40;;;12.50;99.90;;;;;;5173975;28;20026;-76
2022/11/12 08:33:03;;;;;;;3.67;1.30;;;12.50;99.90;;;;;;5177747;28;20037;-75
2022/11/12 08:35:54;;;;;;;2.08;1.35;;;12.60;99.90;;;;;;5177911;28;20032;-75
2022/11/12 08:38:49;;;;;;;2.72;1.40;;;12.70;99.90;;;;;;5186362;28;20032;-75
2022/11/12 08:41:41;;;;;;;1.65;1.55;;;12.70;99.90;;;;;;5185971;28;20028;-75
2022/11/12 08:44:34;;;;;;;290.70;186.63;;;12.70;99.90;;;;;;5186369;28;20033;-75
2022/11/12 08:47:28;;;;;;;14.27;9.82;;;12.90;99.90;;;;;;5190498;28;20022;-75
2022/11/12 08:50:19;;;;;;;59.22;38.83;;;12.90;99.90;;;;;;5186512;28;20036;-77
2022/11/12 08:53:12;;;;;;;21.40;19.17;;;13.20;99.90;;;;;;5166034;28;20039;-78
2022/11/12 08:56:06;;;;;;;26.20;15.57;;;13.20;99.90;;;;;;5174172;28;20025;-77
2022/11/12 08:59:00;;;;;;;297.77;184.40;;;13.30;99.90;;;;;;5203387;28;20021;-76
2022/11/12 09:01:57;;;;;;;79.43;41.88;;;13.50;99.90;;;;;;5185311;28;20022;-77
2022/11/12 09:04:48;;;;;;;79.10;37.70;;;13.60;99.90;;;;;;5160741;28;20046;-77
2022/11/12 09:07:42;;;;;;;887.47;432.35;;;13.70;99.90;;;;;;5183815;28;20036;-77
2022/11/12 09:10:37;;;;;;;409.33;211.45;;;13.90;99.90;;;;;;5185962;28;20034;-77
2022/11/12 09:13:28;;;;;;;;;;;14.10;99.90;;;;;;5190038;28;20033;-77
2022/11/12 09:16:24;;;;;;;593.65;285.42;;;14.40;99.90;;;;;;5189342;28;19909;-77
2022/11/12 09:19:21;;;;;;;148.63;68.55;;;14.50;99.90;;;;;;5188247;28;20038;-77
2022/11/12 09:22:15;;;;;;;180.00;84.65;;;14.60;99.90;;;;;;5189294;28;20032;-77
2022/11/12 09:25:10;;;;;;;10.23;7.30;;;14.80;99.90;;;;;;5190659;28;20036;-77
2022/11/12 09:28:09;;;;;;;24.13;14.88;;;15.00;99.90;;;;;;5156807;28;20037;-77
2022/11/12 09:31:06;;;;;;;21.90;18.98;;;15.00;99.90;;;;;;5182957;28;20030;-75
2022/11/12 09:33:57;;;;;;;5.68;3.38;;;15.20;99.90;;;;;;5193022;28;20029;-78
2022/11/12 09:36:51;;;;;;;3.78;2.30;;;15.20;99.90;;;;;;5174689;28;20034;-77
2022/11/12 09:39:45;;;;;;;7.47;4.03;;;15.50;99.90;;;;;;5175116;28;20030;-78
2022/11/12 09:42:36;;;;;;;1.70;1.60;;;15.60;99.90;;;;;;5189079;28;20018;-78
2022/11/12 09:45:31;;;;;;;45.58;24.38;;;15.50;99.90;;;;;;5173271;28;20030;-78
2022/11/12 09:48:29;;;;;;;56.95;29.17;;;15.70;99.90;;;;;;5174480;28;20026;-77
2022/11/12 09:51:35;;;;;;;307.38;173.77;;;15.90;99.90;;;;;;5190761;28;20034;-75
2022/11/12 09:54:32;;;;;;;285.90;234.40;;;16.00;99.90;;;;;;5154834;28;20041;-76
2022/11/12 09:57:23;;;;;;;27.15;24.33;;;16.40;99.90;;;;;;5184643;28;20035;-75
2022/11/12 10:00:19;;;;;;;13.40;11.45;;;16.90;99.90;;;;;;5209049;28;20028;-76
2022/11/12 10:03:27;;;;;;;7.35;6.57;;;17.20;99.90;;;;;;5179633;28;20042;-77
2022/11/12 10:06:26;;;;;;;4.88;3.95;;;17.80;99.90;;;;;;5162343;28;20056;-77
2022/11/12 10:09:35;;;;;;;10.57;3.78;;;17.70;99.90;;;;;;5185725;28;20033;-77
2022/11/12 10:12:45;;;;;;;26.35;17.25;;;17.80;99.90;;;;;;5165795;28;20040;-77
2022/11/12 10:19:31;;;;;;;37.90;25.83;;;18.20;99.90;;;;;;5175243;28;20019;-77
2022/11/12 10:22:31;;;;;;;6.20;5.47;;;18.90;99.90;;;;;;5162033;28;20030;-78
2022/11/12 10:25:27;;;;;;;19.48;15.00;;;19.10;99.90;;;;;;5177111;28;20034;-78
2022/11/12 10:28:37;;;;;;;10.55;7.22;;;19.20;99.90;;;;;;5179447;28;20033;-77
2022/11/12 10:31:29;;;;;;;3.38;2.58;;;18.90;99.90;;;;;;5178602;28;20025;-77
2022/11/12 10:34:22;;;;;;;14.25;11.80;;;18.50;99.90;;;;;;5178316;28;20030;-77
2022/11/12 10:37:32;;;;;;;13.25;11.20;;;19.40;99.90;;;;;;5177096;28;20026;-77
2022/11/12 10:40:41;;;;;;;3.25;2.33;;;19.20;99.90;;;;;;5177701;28;20033;-78
2022/11/12 10:43:37;;;;;;;14.52;10.65;;;19.60;99.90;;;;;;5162682;28;20044;-78
2022/11/12 10:46:34;;;;;;;11.77;10.50;;;21.10;99.90;;;;;;5154588;28;20699;-77
2022/11/12 10:49:26;;;;;;;5.63;4.60;;;20.80;99.90;;;;;;5175694;28;20034;-77
2022/11/12 10:52:26;;;;;;;17.08;12.27;;;20.20;99.90;;;;;;5167706;28;20026;-77
2022/11/12 10:55:26;;;;;;;2.47;2.22;;;20.10;99.90;;;;;;5174759;28;20045;-77
2022/11/12 10:58:20;;;;;;;6.15;4.35;;;20.20;99.90;;;;;;5177663;28;20032;-76
2022/11/12 11:01:16;;;;;;;4.95;2.28;;;20.80;99.90;;;;;;5176479;28;20191;-77
2022/11/12 11:04:29;;;;;;;5.13;4.07;;;21.30;99.90;;;;;;5177252;28;20044;-77
2022/11/12 11:07:27;;;;;;;7.28;5.82;;;21.50;99.90;;;;;;5154465;28;20136;-77
2022/11/12 11:10:30;;;;;;;3.65;3.30;;;20.90;99.90;;;;;;5175596;28;20033;-76
2022/11/12 11:13:26;;;;;;;2.17;1.98;;;20.60;99.90;;;;;;5176326;28;20018;-75
2022/11/12 11:16:30;;;;;;;2.85;1.80;;;21.00;99.90;;;;;;5178048;28;20445;-77
2022/11/12 11:19:27;;;;;;;3.20;2.90;;;21.00;99.90;;;;;;5182787;28;20044;-78
2022/11/12 11:22:44;;;;;;;3.10;2.83;;;20.50;99.90;;;;;;5187229;28;20044;-78
2022/11/12 11:25:37;;;;;;;2.40;1.35;;;21.00;99.90;;;;;;5174190;28;20055;-78
2022/11/12 11:28:34;;;;;;;1.20;1.10;;;21.20;99.90;;;;;;5187001;28;20026;-77
2022/11/12 11:32:04;;;;;;;2.15;1.40;;;21.00;99.90;;;;;;5172933;28;20029;-78
2022/11/12 11:35:01;;;;;;;3.13;1.50;;;21.00;99.90;;;;;;5103991;29;20047;-78
2022/11/12 11:37:58;;;;;;;1.85;1.30;;;21.70;99.90;;;;;;5105518;28;20034;-78
2022/11/12 11:40:55;;;;;;;1.95;1.67;;;22.60;99.90;;;;;;5105563;28;20027;-77
2022/11/12 11:44:04;;;;;;;1.98;1.30;;;23.20;99.90;;;;;;5104536;28;20035;-77
2022/11/12 11:47:16;;;;;;;1.42;1.10;;;24.70;99.90;;;;;;5104627;29;20520;-76
2022/11/12 11:50:22;;;;;;;6.35;1.38;;;25.90;99.90;;;;;;5105341;28;20035;-78
2022/11/12 11:53:30;;;;;;;2.70;1.48;;;26.10;99.90;;;;;;5104460;29;20031;-78
2022/11/12 11:56:32;;;;;;;1.25;1.02;;;26.10;99.90;;;;;;5110527;29;20037;-77
2022/11/12 12:00:03;;;;;;;2.55;1.30;;;25.00;99.90;;;;;;5105224;28;20527;-77
2022/11/12 12:03:06;;;;;;;1.10;0.95;;;25.10;99.90;;;;;;5104783;29;20554;-76
2022/11/12 12:06:28;;;;;;;2.78;1.40;;;24.50;99.90;;;;;;5094846;29;20062;-77
2022/11/12 12:09:29;;;;;;;1.63;1.13;;;24.90;99.90;;;;;;5105416;29;20317;-76
2022/11/12 12:12:55;;;;;;;2.03;1.20;;;25.80;99.90;;;;;;5166094;28;20036;-76
2022/11/12 12:16:07;;;;;;;1.90;1.37;;;25.00;99.90;;;;;;5185407;28;20472;-76
2022/11/12 12:19:08;;;;;;;3.25;1.50;;;24.20;99.90;;;;;;5178567;28;20440;-75
2022/11/12 12:22:03;;;;;;;2.42;1.20;;;24.70;99.90;;;;;;5187339;28;20029;-78
2022/11/12 12:25:08;;;;;;;1.35;1.25;;;25.20;99.90;;;;;;5206522;28;20602;-77
2022/11/12 12:28:12;;;;;;;965.55;439.00;;;25.10;99.40;;;;;;5206273;28;20043;-79
2022/11/12 12:31:13;;;;;;;958.40;687.63;;;24.40;99.90;;;;;;5206465;28;20033;-78
2022/11/12 12:34:33;;;;;;;22.80;20.50;;;24.30;99.90;;;;;;5206086;28;20037;-79
2022/11/12 12:38:16;;;;;;;10.30;8.93;;;24.60;99.90;;;;;;5192463;28;20039;-79
2022/11/12 12:41:26;;;;;;;19.65;16.95;;;23.80;99.90;;;;;;5090735;29;20036;-76
2022/11/12 12:44:21;;;;;;;66.88;40.10;;;23.20;99.90;;;;;;5090775;29;20224;-77
2022/11/12 12:47:17;;;;;;;417.10;228.88;;;23.30;99.90;;;;;;5108224;28;20068;-76
2022/11/12 12:50:16;;;;;;;179.07;101.95;;;23.40;99.90;;;;;;5108487;28;20047;-77
2022/11/12 12:53:29;;;;;;;308.95;160.60;;;23.10;99.90;;;;;;5107405;29;20034;-78
2022/11/12 12:56:31;;;;;;;125.85;72.35;;;22.60;99.90;;;;;;5094870;29;20198;-76
2022/11/12 12:59:23;;;;;;;113.88;54.08;;;22.30;99.90;;;;;;5108301;28;20353;-79
2022/11/12 13:02:23;;;;;;;35.88;17.00;;;21.10;99.90;;;;;;5104201;28;20047;-77
2022/11/12 13:05:27;;;;;;;88.38;47.55;;;21.20;99.90;;;;;;5097037;29;20039;-77
2022/11/12 13:08:24;;;;;;;381.63;200.93;;;21.70;99.90;;;;;;5097070;29;20491;-77
2022/11/12 13:15:15;;;;;;;242.48;123.55;;;23.20;99.90;;;;;;5087985;29;20032;-76
2022/11/12 13:18:13;;;;;;;55.83;27.63;;;23.10;99.90;;;;;;5181804;28;20037;-77
2022/11/12 13:21:17;;;;;;;13.48;6.20;;;22.70;99.90;;;;;;5189907;28;20034;-78
2022/11/12 13:24:11;;;;;;;495.60;252.80;;;21.80;99.90;;;;;;5189105;28;20464;-79
2022/11/12 13:27:11;;;;;;;406.63;212.48;;;20.80;99.90;;;;;;5178217;28;20347;-79
2022/11/12 13:30:06;;;;;;;6.20;4.35;;;20.70;99.90;;;;;;5187424;28;20040;-78
2022/11/12 13:32:59;;;;;;;2.70;2.50;;;20.50;99.90;;;;;;5188729;28;20417;-77
2022/11/12 13:35:51;;;;;;;18.27;9.18;;;20.40;99.90;;;;;;5182913;28;20037;-79
2022/11/12 13:38:43;;;;;;;253.38;130.95;;;20.30;99.90;;;;;;5179143;28;20022;-78
2022/11/12 13:45:01;;;;;;;11.02;8.00;;;20.50;99.90;;;;;;5146562;28;20130;-78
2022/11/12 13:47:54;;;;;;;13.18;11.77;;;20.40;99.90;;;;;;5148817;28;20205;-77
2022/11/12 13:50:58;;;;;;;6.80;4.50;;;20.00;99.90;;;;;;5166299;28;20367;-77
2022/11/12 13:53:52;;;;;;;12.07;9.43;;;19.40;99.90;;;;;;5152535;28;20046;-78
2022/11/12 13:56:49;;;;;;;2.07;1.43;;;19.00;99.90;;;;;;5157167;28;20052;-78
2022/11/12 13:59:48;;;;;;;11.35;8.73;;;18.70;99.90;;;;;;5146714;28;20041;-77
2022/11/12 14:02:43;;;;;;;2.88;2.08;;;18.30;99.90;;;;;;5147017;28;20045;-77
2022/11/12 14:05:38;;;;;;;;;;;17.80;99.90;;;;;;5136671;28;20052;-79
2022/11/12 14:08:45;;;;;;;2.08;1.88;;;17.10;99.90;;;;;;5146950;28;19910;-76
2022/11/12 14:12:01;;;;;;;10.23;7.53;;;16.70;99.90;;;;;;5145165;28;20035;-78
2022/11/12 14:15:12;;;;;;;2.08;1.85;;;16.50;99.90;;;;;;5146021;28;20169;-77
2022/11/12 14:18:24;;;;;;;2.05;1.85;;;16.30;99.90;;;;;;5128854;28;20030;-78
2022/11/12 14:21:18;;;;;;;3.30;2.15;;;16.30;99.90;;;;;;5163839;28;20038;-78
2022/11/12 14:24:12;;;;;;;1.98;1.80;;;16.30;99.90;;;;;;5168911;28;20040;-78
2022/11/12 14:27:03;;;;;;;2.85;2.15;;;16.20;99.90;;;;;;5195498;28;20028;-78
2022/11/12 14:30:19;;;;;;;2.80;1.90;;;16.10;99.90;;;;;;5195979;28;20021;-78
2022/11/12 14:33:20;;;;;;;2.63;2.30;;;16.00;99.90;;;;;;5210761;28;20029;-78
2022/11/12 14:36:14;;;;;;;3.67;2.13;;;15.90;99.90;;;;;;5210490;28;20025;-78
2022/11/12 14:39:10;;;;;;;3.33;2.25;;;15.80;99.90;;;;;;5186724;28;20030;-79
2022/11/12 14:42:01;;;;;;;22.45;20.45;;;15.70;99.90;;;;;;5191034;28;20337;-77
2022/11/12 14:44:55;;;;;;;4.70;2.70;;;15.60;99.90;;;;;;5176970;28;20212;-79
2022/11/12 14:47:51;;;;;;;4.65;3.33;;;15.40;99.90;;;;;;5189955;28;20109;-79
2022/11/12 14:50:47;;;;;;;4.20;2.40;;;15.20;99.90;;;;;;5159411;28;20038;-77
2022/11/12 14:53:44;;;;;;;6.68;3.83;;;15.10;99.90;;;;;;5197427;28;20018;-78
2022/11/12 14:56:46;;;;;;;2.72;2.53;;;14.80;99.90;;;;;;5201101;28;20025;-77
2022/11/12 14:59:39;;;;;;;9.98;8.38;;;14.60;99.90;;;;;;5198427;28;20030;-78
2022/11/12 15:02:31;;;;;;;27.58;18.23;;;14.30;99.90;;;;;;5183417;28;20026;-78
2022/11/12 15:05:36;;;;;;;59.25;38.25;;;14.10;99.90;;;;;;5184293;28;20516;-76
2022/11/12 15:08:33;;;;;;;63.85;43.20;;;13.80;99.90;;;;;;5188483;28;20400;-76
2022/11/12 15:11:36;;;;;;;13.45;8.50;;;13.70;99.90;;;;;;5195592;28;20203;-78
2022/11/12 15:14:28;;;;;;;6.38;4.13;;;13.60;99.90;;;;;;5180945;28;20046;-76
2022/11/12 15:17:32;;;;;;;4.93;4.43;;;13.50;99.90;;;;;;5178474;28;20032;-77
2022/11/12 15:20:24;;;;;;;6.57;5.03;;;13.40;99.90;;;;;;5190676;28;20068;-77
2022/11/12 15:23:17;;;;;;;5.63;3.70;;;13.30;99.90;;;;;;5190880;28;20029;-77
2022/11/12 15:26:14;;;;;;;4.90;3.78;;;13.10;99.90;;;;;;5175842;28;20240;-78
2022/11/12 15:29:38;;;;;;;10.63;6.43;;;12.90;99.90;;;;;;5192998;28;20037;-76
2022/11/12 15:32:32;;;;;;;7.00;4.55;;;12.70;99.90;;;;;;5108348;28;20036;-76
2022/11/12 15:35:24;;;;;;;8.15;5.88;;;12.50;99.90;;;;;;5094176;29;20046;-76
2022/11/12 15:38:54;;;;;;;9.38;7.60;;;12.40;99.90;;;;;;5092766;29;20028;-76
2022/11/12 15:41:48;;;;;;;6.28;4.80;;;12.10;99.90;;;;;;5049410;29;20543;-77
2022/11/12 15:44:43;;;;;;;68.63;37.53;;;11.90;99.90;;;;;;5049196;29;20185;-77
2022/11/12 15:47:37;;;;;;;82.00;50.55;;;11.70;99.90;;;;;;5049101;29;20039;-78
2022/11/12 15:50:30;;;;;;;11.60;6.28;;;11.60;99.90;;;;;;5046660;29;20025;-76
2022/11/12 15:53:24;;;;;;;15.73;8.13;;;11.40;99.90;;;;;;5048412;29;20032;-76
2022/11/12 15:56:19;;;;;;;12.93;8.38;;;11.30;99.90;;;;;;5046320;29;20045;-77
2022/11/12 15:59:15;;;;;;;21.15;12.40;;;11.20;99.90;;;;;;5033782;29;20040;-78
2022/11/12 16:02:14;;;;;;;44.88;25.95;;;11.10;99.90;;;;;;5056261;29;20040;-76